sensor_id;sensor_type;location;lat;lon;timestamp;temperature;humidity
4107;DHT22;21906;50.812;7.132;2023-04-06T00:00:50;6.00;56.50
4107;DHT22;21906;50.812;7.132;2023-04-06T00:03:16;6.00;56.70
4107;DHT22;21906;50.812;7.132;2023-04-06T00:05:42;6.10;56.50
4107;DHT22;21906;50.812;7.132;2023-04-06T00:08:08;6.00;56.50
4107;DHT22;21906;50.812;7.132;2023-04-06T00:10:33;6.00;56.30
4107;DHT22;21906;50.812;7.132;2023-04-06T00:12:59;6.00;56.70
4107;DHT22;21906;50.812;7.132;2023-04-06T00:15:26;5.90;56.50
4107;DHT22;21906;50.812;7.132;2023-04-06T00:17:52;5.90;56.60
4107;DHT22;21906;50.812;7.132;2023-04-06T00:20:18;5.90;56.20
4107;DHT22;21906;50.812;7.132;2023-04-06T00:22:44;5.90;56.40
4107;DHT22;21906;50.812;7.132;2023-04-06T00:25:10;5.90;56.30
4107;DHT22;21906;50.812;7.132;2023-04-06T00:27:37;5.90;56.80
4107;DHT22;21906;50.812;7.132;2023-04-06T00:30:07;5.80;56.50
4107;DHT22;21906;50.812;7.132;2023-04-06T00:32:34;5.90;56.70
4107;DHT22;21906;50.812;7.132;2023-04-06T00:35:05;5.90;56.70
4107;DHT22;21906;50.812;7.132;2023-04-06T00:37:31;5.90;56.70
4107;DHT22;21906;50.812;7.132;2023-04-06T00:39:58;5.80;56.70
4107;DHT22;21906;50.812;7.132;2023-04-06T00:42:24;5.80;56.70
4107;DHT22;21906;50.812;7.132;2023-04-06T00:44:54;5.70;57.00
4107;DHT22;21906;50.812;7.132;2023-04-06T00:47:21;5.70;57.20
4107;DHT22;21906;50.812;7.132;2023-04-06T00:49:47;5.80;57.10
4107;DHT22;21906;50.812;7.132;2023-04-06T00:52:13;5.70;56.80
4107;DHT22;21906;50.812;7.132;2023-04-06T00:54:38;5.70;56.90
4107;DHT22;21906;50.812;7.132;2023-04-06T00:57:04;5.70;56.90
4107;DHT22;21906;50.812;7.132;2023-04-06T00:59:31;5.70;57.00
4107;DHT22;21906;50.812;7.132;2023-04-06T01:01:57;5.70;57.10
4107;DHT22;21906;50.812;7.132;2023-04-06T01:04:23;5.70;57.00
4107;DHT22;21906;50.812;7.132;2023-04-06T01:06:50;5.70;56.90
4107;DHT22;21906;50.812;7.132;2023-04-06T01:09:16;5.60;56.70
4107;DHT22;21906;50.812;7.132;2023-04-06T01:11:42;5.60;56.80
4107;DHT22;21906;50.812;7.132;2023-04-06T01:14:08;5.60;56.80
4107;DHT22;21906;50.812;7.132;2023-04-06T01:16:34;5.60;56.70
4107;DHT22;21906;50.812;7.132;2023-04-06T01:19:00;5.60;56.80
4107;DHT22;21906;50.812;7.132;2023-04-06T01:21:26;5.50;56.70
4107;DHT22;21906;50.812;7.132;2023-04-06T01:23:52;5.50;56.90
4107;DHT22;21906;50.812;7.132;2023-04-06T01:26:18;5.50;56.90
4107;DHT22;21906;50.812;7.132;2023-04-06T01:28:43;5.50;57.20
4107;DHT22;21906;50.812;7.132;2023-04-06T01:31:10;5.40;57.10
4107;DHT22;21906;50.812;7.132;2023-04-06T01:33:36;5.50;57.20
4107;DHT22;21906;50.812;7.132;2023-04-06T01:36:02;5.40;57.10
4107;DHT22;21906;50.812;7.132;2023-04-06T01:38:28;5.40;57.00
4107;DHT22;21906;50.812;7.132;2023-04-06T01:40:54;5.40;57.30
4107;DHT22;21906;50.812;7.132;2023-04-06T01:43:20;5.40;57.40
4107;DHT22;21906;50.812;7.132;2023-04-06T01:45:46;5.40;57.60
4107;DHT22;21906;50.812;7.132;2023-04-06T01:48:11;5.40;57.40
4107;DHT22;21906;50.812;7.132;2023-04-06T01:50:37;5.40;57.60
4107;DHT22;21906;50.812;7.132;2023-04-06T01:53:03;5.40;57.70
4107;DHT22;21906;50.812;7.132;2023-04-06T01:55:29;5.30;57.40
4107;DHT22;21906;50.812;7.132;2023-04-06T01:57:54;5.30;57.70
4107;DHT22;21906;50.812;7.132;2023-04-06T02:00:20;5.30;57.70
4107;DHT22;21906;50.812;7.132;2023-04-06T02:02:46;5.30;57.80
4107;DHT22;21906;50.812;7.132;2023-04-06T02:05:12;5.30;57.60
4107;DHT22;21906;50.812;7.132;2023-04-06T02:07:38;5.30;57.60
4107;DHT22;21906;50.812;7.132;2023-04-06T02:10:04;5.30;57.80
4107;DHT22;21906;50.812;7.132;2023-04-06T02:12:30;5.30;57.60
4107;DHT22;21906;50.812;7.132;2023-04-06T02:14:55;5.30;57.60
4107;DHT22;21906;50.812;7.132;2023-04-06T02:17:21;5.30;57.40
4107;DHT22;21906;50.812;7.132;2023-04-06T02:19:47;5.30;57.40
4107;DHT22;21906;50.812;7.132;2023-04-06T02:22:12;5.30;57.50
4107;DHT22;21906;50.812;7.132;2023-04-06T02:24:38;5.30;57.40
4107;DHT22;21906;50.812;7.132;2023-04-06T02:27:04;5.30;57.40
4107;DHT22;21906;50.812;7.132;2023-04-06T02:29:30;5.20;57.60
4107;DHT22;21906;50.812;7.132;2023-04-06T02:31:56;5.20;57.60
4107;DHT22;21906;50.812;7.132;2023-04-06T02:34:21;5.00;58.00
4107;DHT22;21906;50.812;7.132;2023-04-06T02:36:47;5.00;58.10
4107;DHT22;21906;50.812;7.132;2023-04-06T02:39:14;5.00;58.20
4107;DHT22;21906;50.812;7.132;2023-04-06T02:41:41;4.90;58.50
4107;DHT22;21906;50.812;7.132;2023-04-06T02:44:08;4.90;58.30
4107;DHT22;21906;50.812;7.132;2023-04-06T02:46:34;4.90;58.30
4107;DHT22;21906;50.812;7.132;2023-04-06T02:49:00;5.00;58.10
4107;DHT22;21906;50.812;7.132;2023-04-06T02:51:26;5.00;58.00
4107;DHT22;21906;50.812;7.132;2023-04-06T02:53:53;5.00;57.60
4107;DHT22;21906;50.812;7.132;2023-04-06T02:56:19;5.00;57.60
4107;DHT22;21906;50.812;7.132;2023-04-06T02:58:46;5.10;57.60
4107;DHT22;21906;50.812;7.132;2023-04-06T03:01:12;5.10;57.40
4107;DHT22;21906;50.812;7.132;2023-04-06T03:03:38;5.00;57.50
4107;DHT22;21906;50.812;7.132;2023-04-06T03:06:03;5.10;57.50
4107;DHT22;21906;50.812;7.132;2023-04-06T03:08:29;5.10;57.50
4107;DHT22;21906;50.812;7.132;2023-04-06T03:10:55;5.00;57.50
4107;DHT22;21906;50.812;7.132;2023-04-06T03:13:21;4.90;57.80
4107;DHT22;21906;50.812;7.132;2023-04-06T03:15:47;4.90;57.80
4107;DHT22;21906;50.812;7.132;2023-04-06T03:18:12;4.80;58.00
4107;DHT22;21906;50.812;7.132;2023-04-06T03:20:38;4.80;58.10
4107;DHT22;21906;50.812;7.132;2023-04-06T03:23:04;4.70;58.10
4107;DHT22;21906;50.812;7.132;2023-04-06T03:25:30;4.70;58.50
4107;DHT22;21906;50.812;7.132;2023-04-06T03:27:56;4.70;58.60
4107;DHT22;21906;50.812;7.132;2023-04-06T03:30:21;4.70;58.70
4107;DHT22;21906;50.812;7.132;2023-04-06T03:32:47;4.70;58.50
4107;DHT22;21906;50.812;7.132;2023-04-06T03:35:13;4.70;58.60
4107;DHT22;21906;50.812;7.132;2023-04-06T03:37:39;4.70;58.90
4107;DHT22;21906;50.812;7.132;2023-04-06T03:40:05;4.60;58.70
4107;DHT22;21906;50.812;7.132;2023-04-06T03:42:31;4.60;58.80
4107;DHT22;21906;50.812;7.132;2023-04-06T03:44:58;4.50;59.00
4107;DHT22;21906;50.812;7.132;2023-04-06T03:47:24;4.50;58.80
4107;DHT22;21906;50.812;7.132;2023-04-06T03:49:50;4.50;58.80
4107;DHT22;21906;50.812;7.132;2023-04-06T03:52:16;4.40;59.00
4107;DHT22;21906;50.812;7.132;2023-04-06T03:54:41;4.40;59.00
4107;DHT22;21906;50.812;7.132;2023-04-06T03:57:07;4.40;59.10
4107;DHT22;21906;50.812;7.132;2023-04-06T03:59:33;4.40;59.50
4107;DHT22;21906;50.812;7.132;2023-04-06T04:01:59;4.40;59.30
4107;DHT22;21906;50.812;7.132;2023-04-06T04:04:25;4.40;59.40
4107;DHT22;21906;50.812;7.132;2023-04-06T04:06:50;4.40;59.30
4107;DHT22;21906;50.812;7.132;2023-04-06T04:09:16;4.40;59.20
4107;DHT22;21906;50.812;7.132;2023-04-06T04:11:42;4.40;59.40
4107;DHT22;21906;50.812;7.132;2023-04-06T04:14:08;4.30;59.40
4107;DHT22;21906;50.812;7.132;2023-04-06T04:16:33;4.40;59.50
4107;DHT22;21906;50.812;7.132;2023-04-06T04:18:59;4.40;59.30
4107;DHT22;21906;50.812;7.132;2023-04-06T04:21:25;4.40;59.30
4107;DHT22;21906;50.812;7.132;2023-04-06T04:23:51;4.40;59.40
4107;DHT22;21906;50.812;7.132;2023-04-06T04:26:18;4.40;59.20
4107;DHT22;21906;50.812;7.132;2023-04-06T04:28:44;4.40;59.20
4107;DHT22;21906;50.812;7.132;2023-04-06T04:31:09;4.30;59.30
4107;DHT22;21906;50.812;7.132;2023-04-06T04:33:35;4.20;59.20
4107;DHT22;21906;50.812;7.132;2023-04-06T04:36:01;4.20;59.40
4107;DHT22;21906;50.812;7.132;2023-04-06T04:38:27;4.20;59.60
4107;DHT22;21906;50.812;7.132;2023-04-06T04:40:53;4.20;59.40
4107;DHT22;21906;50.812;7.132;2023-04-06T04:43:21;4.20;59.30
4107;DHT22;21906;50.812;7.132;2023-04-06T04:45:47;4.30;59.10
4107;DHT22;21906;50.812;7.132;2023-04-06T04:48:12;4.20;59.10
4107;DHT22;21906;50.812;7.132;2023-04-06T04:50:38;4.20;59.30
4107;DHT22;21906;50.812;7.132;2023-04-06T04:53:04;4.30;59.30
4107;DHT22;21906;50.812;7.132;2023-04-06T04:55:33;4.20;59.40
4107;DHT22;21906;50.812;7.132;2023-04-06T04:57:59;4.20;59.30
4107;DHT22;21906;50.812;7.132;2023-04-06T05:00:24;4.20;59.50
4107;DHT22;21906;50.812;7.132;2023-04-06T05:02:51;4.20;59.60
4107;DHT22;21906;50.812;7.132;2023-04-06T05:05:16;4.20;59.60
4107;DHT22;21906;50.812;7.132;2023-04-06T05:07:42;4.10;59.70
4107;DHT22;21906;50.812;7.132;2023-04-06T05:10:08;4.10;59.70
4107;DHT22;21906;50.812;7.132;2023-04-06T05:12:34;4.10;59.60
4107;DHT22;21906;50.812;7.132;2023-04-06T05:15:00;4.10;59.60
4107;DHT22;21906;50.812;7.132;2023-04-06T05:17:26;4.10;59.50
4107;DHT22;21906;50.812;7.132;2023-04-06T05:19:52;4.10;59.50
4107;DHT22;21906;50.812;7.132;2023-04-06T05:22:18;4.20;59.50
4107;DHT22;21906;50.812;7.132;2023-04-06T05:24:44;4.20;59.50
4107;DHT22;21906;50.812;7.132;2023-04-06T05:27:09;4.20;59.50
4107;DHT22;21906;50.812;7.132;2023-04-06T05:29:36;4.20;59.40
4107;DHT22;21906;50.812;7.132;2023-04-06T05:32:02;4.30;59.10
4107;DHT22;21906;50.812;7.132;2023-04-06T05:34:27;4.30;59.00
4107;DHT22;21906;50.812;7.132;2023-04-06T05:36:53;4.40;58.80
4107;DHT22;21906;50.812;7.132;2023-04-06T05:39:19;4.40;58.90
4107;DHT22;21906;50.812;7.132;2023-04-06T05:41:45;4.30;59.20
4107;DHT22;21906;50.812;7.132;2023-04-06T05:44:11;4.40;59.20
4107;DHT22;21906;50.812;7.132;2023-04-06T05:46:37;4.40;59.10
4107;DHT22;21906;50.812;7.132;2023-04-06T05:49:03;4.40;59.30
4107;DHT22;21906;50.812;7.132;2023-04-06T05:51:28;4.50;58.80
4107;DHT22;21906;50.812;7.132;2023-04-06T05:53:54;4.50;58.60
4107;DHT22;21906;50.812;7.132;2023-04-06T05:56:20;4.60;58.70
4107;DHT22;21906;50.812;7.132;2023-04-06T05:58:46;4.60;58.60
4107;DHT22;21906;50.812;7.132;2023-04-06T06:01:11;4.70;58.50
4107;DHT22;21906;50.812;7.132;2023-04-06T06:03:37;4.70;58.40
4107;DHT22;21906;50.812;7.132;2023-04-06T06:06:03;4.90;58.20
4107;DHT22;21906;50.812;7.132;2023-04-06T06:08:29;4.90;57.90
4107;DHT22;21906;50.812;7.132;2023-04-06T06:10:56;4.90;57.70
4107;DHT22;21906;50.812;7.132;2023-04-06T06:13:22;4.90;57.60
4107;DHT22;21906;50.812;7.132;2023-04-06T06:15:49;4.90;57.20
4107;DHT22;21906;50.812;7.132;2023-04-06T06:18:15;4.90;57.30
4107;DHT22;21906;50.812;7.132;2023-04-06T06:20:41;5.00;57.30
4107;DHT22;21906;50.812;7.132;2023-04-06T06:23:07;5.20;57.30
4107;DHT22;21906;50.812;7.132;2023-04-06T06:25:32;5.30;57.00
4107;DHT22;21906;50.812;7.132;2023-04-06T06:27:59;5.40;56.80
4107;DHT22;21906;50.812;7.132;2023-04-06T06:30:25;5.40;56.50
4107;DHT22;21906;50.812;7.132;2023-04-06T06:32:51;5.50;56.60
4107;DHT22;21906;50.812;7.132;2023-04-06T06:35:17;5.50;56.50
4107;DHT22;21906;50.812;7.132;2023-04-06T06:37:43;5.50;56.40
4107;DHT22;21906;50.812;7.132;2023-04-06T06:40:10;5.70;56.00
4107;DHT22;21906;50.812;7.132;2023-04-06T06:42:38;5.70;56.20
4107;DHT22;21906;50.812;7.132;2023-04-06T06:45:05;5.80;55.80
4107;DHT22;21906;50.812;7.132;2023-04-06T06:47:31;5.90;55.50
4107;DHT22;21906;50.812;7.132;2023-04-06T06:49:56;6.00;55.10
4107;DHT22;21906;50.812;7.132;2023-04-06T06:52:22;6.10;54.90
4107;DHT22;21906;50.812;7.132;2023-04-06T06:54:49;6.20;54.80
4107;DHT22;21906;50.812;7.132;2023-04-06T06:57:15;6.20;54.40
4107;DHT22;21906;50.812;7.132;2023-04-06T06:59:40;6.30;54.10
4107;DHT22;21906;50.812;7.132;2023-04-06T07:02:06;6.40;54.10
4107;DHT22;21906;50.812;7.132;2023-04-06T07:04:32;6.60;53.80
4107;DHT22;21906;50.812;7.132;2023-04-06T07:06:57;6.70;53.50
4107;DHT22;21906;50.812;7.132;2023-04-06T07:09:23;6.90;53.40
4107;DHT22;21906;50.812;7.132;2023-04-06T07:11:49;6.80;52.80
4107;DHT22;21906;50.812;7.132;2023-04-06T07:14:15;7.00;52.80
4107;DHT22;21906;50.812;7.132;2023-04-06T07:16:41;7.10;52.40
4107;DHT22;21906;50.812;7.132;2023-04-06T07:19:07;7.20;52.20
4107;DHT22;21906;50.812;7.132;2023-04-06T07:21:34;7.40;52.10
4107;DHT22;21906;50.812;7.132;2023-04-06T07:24:00;7.50;51.70
4107;DHT22;21906;50.812;7.132;2023-04-06T07:26:27;7.60;51.70
4107;DHT22;21906;50.812;7.132;2023-04-06T07:28:53;7.80;50.90
4107;DHT22;21906;50.812;7.132;2023-04-06T07:31:18;7.90;50.90
4107;DHT22;21906;50.812;7.132;2023-04-06T07:33:44;8.00;51.10
4107;DHT22;21906;50.812;7.132;2023-04-06T07:36:10;8.00;51.00
4107;DHT22;21906;50.812;7.132;2023-04-06T07:38:36;8.20;50.90
4107;DHT22;21906;50.812;7.132;2023-04-06T07:41:02;8.20;50.50
4107;DHT22;21906;50.812;7.132;2023-04-06T07:43:29;8.30;50.50
4107;DHT22;21906;50.812;7.132;2023-04-06T07:45:56;8.40;50.40
4107;DHT22;21906;50.812;7.132;2023-04-06T07:48:23;8.50;50.10
4107;DHT22;21906;50.812;7.132;2023-04-06T07:50:48;8.70;50.00
4107;DHT22;21906;50.812;7.132;2023-04-06T07:53:14;8.80;49.90
4107;DHT22;21906;50.812;7.132;2023-04-06T07:55:40;8.80;50.20
4107;DHT22;21906;50.812;7.132;2023-04-06T07:58:05;8.90;49.90
4107;DHT22;21906;50.812;7.132;2023-04-06T08:00:32;9.10;49.40
4107;DHT22;21906;50.812;7.132;2023-04-06T08:02:57;9.20;49.60
4107;DHT22;21906;50.812;7.132;2023-04-06T08:05:23;9.30;50.30
4107;DHT22;21906;50.812;7.132;2023-04-06T08:07:49;9.50;49.60
4107;DHT22;21906;50.812;7.132;2023-04-06T08:10:14;9.50;49.50
4107;DHT22;21906;50.812;7.132;2023-04-06T08:12:40;9.70;49.60
4107;DHT22;21906;50.812;7.132;2023-04-06T08:15:06;9.80;49.40
4107;DHT22;21906;50.812;7.132;2023-04-06T08:17:32;9.90;48.80
4107;DHT22;21906;50.812;7.132;2023-04-06T08:19:59;9.90;50.50
4107;DHT22;21906;50.812;7.132;2023-04-06T08:22:25;10.00;51.70
4107;DHT22;21906;50.812;7.132;2023-04-06T08:24:51;10.10;50.80
4107;DHT22;21906;50.812;7.132;2023-04-06T08:27:16;10.10;50.20
4107;DHT22;21906;50.812;7.132;2023-04-06T08:29:42;10.20;51.60
4107;DHT22;21906;50.812;7.132;2023-04-06T08:32:08;10.30;50.20
4107;DHT22;21906;50.812;7.132;2023-04-06T08:34:34;10.30;50.40
4107;DHT22;21906;50.812;7.132;2023-04-06T08:37:00;10.50;50.50
4107;DHT22;21906;50.812;7.132;2023-04-06T08:39:27;10.60;49.40
4107;DHT22;21906;50.812;7.132;2023-04-06T08:41:53;10.80;49.10
4107;DHT22;21906;50.812;7.132;2023-04-06T08:44:22;10.90;49.40
4107;DHT22;21906;50.812;7.132;2023-04-06T08:46:48;11.00;49.20
4107;DHT22;21906;50.812;7.132;2023-04-06T08:49:16;11.10;48.50
4107;DHT22;21906;50.812;7.132;2023-04-06T08:51:42;11.30;49.10
4107;DHT22;21906;50.812;7.132;2023-04-06T08:54:08;11.40;48.60
4107;DHT22;21906;50.812;7.132;2023-04-06T08:56:37;11.50;48.10
4107;DHT22;21906;50.812;7.132;2023-04-06T08:59:04;11.70;47.10
4107;DHT22;21906;50.812;7.132;2023-04-06T09:01:31;11.90;46.70
4107;DHT22;21906;50.812;7.132;2023-04-06T09:03:59;11.90;47.00
4107;DHT22;21906;50.812;7.132;2023-04-06T09:06:30;12.00;46.60
4107;DHT22;21906;50.812;7.132;2023-04-06T09:08:56;12.20;46.20
4107;DHT22;21906;50.812;7.132;2023-04-06T09:11:23;12.30;45.40
4107;DHT22;21906;50.812;7.132;2023-04-06T09:13:54;12.50;45.10
4107;DHT22;21906;50.812;7.132;2023-04-06T09:16:20;12.60;44.70
4107;DHT22;21906;50.812;7.132;2023-04-06T09:18:46;12.70;44.90
4107;DHT22;21906;50.812;7.132;2023-04-06T09:21:12;12.80;44.50
4107;DHT22;21906;50.812;7.132;2023-04-06T09:23:39;12.70;45.10
4107;DHT22;21906;50.812;7.132;2023-04-06T09:26:16;12.90;45.50
4107;DHT22;21906;50.812;7.132;2023-04-06T09:28:50;13.10;44.70
4107;DHT22;21906;50.812;7.132;2023-04-06T09:31:21;13.20;44.20
4107;DHT22;21906;50.812;7.132;2023-04-06T09:33:47;13.20;45.00
4107;DHT22;21906;50.812;7.132;2023-04-06T09:36:13;13.40;43.50
4107;DHT22;21906;50.812;7.132;2023-04-06T09:39:12;13.50;43.80
4107;DHT22;21906;50.812;7.132;2023-04-06T09:41:38;13.60;44.00
4107;DHT22;21906;50.812;7.132;2023-04-06T09:44:06;13.70;42.80
4107;DHT22;21906;50.812;7.132;2023-04-06T09:46:38;13.80;43.60
4107;DHT22;21906;50.812;7.132;2023-04-06T09:49:05;13.90;42.90
4107;DHT22;21906;50.812;7.132;2023-04-06T09:54:08;14.10;42.60
4107;DHT22;21906;50.812;7.132;2023-04-06T09:56:49;14.30;40.30
4107;DHT22;21906;50.812;7.132;2023-04-06T10:07:39;14.60;41.80
4107;DHT22;21906;50.812;7.132;2023-04-06T10:10:05;14.70;42.90
4107;DHT22;21906;50.812;7.132;2023-04-06T10:12:31;14.80;42.80
4107;DHT22;21906;50.812;7.132;2023-04-06T10:14:57;14.90;41.90
4107;DHT22;21906;50.812;7.132;2023-04-06T10:17:23;14.90;40.90
4107;DHT22;21906;50.812;7.132;2023-04-06T10:22:29;15.10;42.50
4107;DHT22;21906;50.812;7.132;2023-04-06T10:24:57;15.20;38.90
4107;DHT22;21906;50.812;7.132;2023-04-06T10:27:30;15.30;40.00
4107;DHT22;21906;50.812;7.132;2023-04-06T10:30:02;15.30;39.50
4107;DHT22;21906;50.812;7.132;2023-04-06T10:32:38;15.40;43.00
4107;DHT22;21906;50.812;7.132;2023-04-06T10:35:12;15.70;39.80
4107;DHT22;21906;50.812;7.132;2023-04-06T10:38:01;15.60;36.70
4107;DHT22;21906;50.812;7.132;2023-04-06T10:40:27;15.60;35.60
4107;DHT22;21906;50.812;7.132;2023-04-06T10:42:54;15.50;36.50
4107;DHT22;21906;50.812;7.132;2023-04-06T10:45:24;15.60;37.20
4107;DHT22;21906;50.812;7.132;2023-04-06T10:47:54;15.80;36.80
4107;DHT22;21906;50.812;7.132;2023-04-06T10:50:21;15.60;36.50
4107;DHT22;21906;50.812;7.132;2023-04-06T10:52:47;15.70;34.40
4107;DHT22;21906;50.812;7.132;2023-04-06T10:55:16;15.60;35.00
4107;DHT22;21906;50.812;7.132;2023-04-06T10:57:42;15.60;35.20
4107;DHT22;21906;50.812;7.132;2023-04-06T11:00:11;15.50;34.50
4107;DHT22;21906;50.812;7.132;2023-04-06T11:02:37;15.60;34.10
4107;DHT22;21906;50.812;7.132;2023-04-06T11:05:03;15.50;34.50
4107;DHT22;21906;50.812;7.132;2023-04-06T11:07:29;15.40;34.80
4107;DHT22;21906;50.812;7.132;2023-04-06T11:09:56;15.40;35.60
4107;DHT22;21906;50.812;7.132;2023-04-06T11:12:26;15.30;35.10
4107;DHT22;21906;50.812;7.132;2023-04-06T11:15:03;15.30;35.20
4107;DHT22;21906;50.812;7.132;2023-04-06T11:17:33;15.40;35.70
4107;DHT22;21906;50.812;7.132;2023-04-06T11:19:59;15.50;35.80
4107;DHT22;21906;50.812;7.132;2023-04-06T11:22:26;15.50;36.10
4107;DHT22;21906;50.812;7.132;2023-04-06T11:24:52;15.60;35.50
4107;DHT22;21906;50.812;7.132;2023-04-06T11:27:18;15.70;33.80
4107;DHT22;21906;50.812;7.132;2023-04-06T11:29:45;15.70;34.80
4107;DHT22;21906;50.812;7.132;2023-04-06T11:32:21;15.70;35.10
4107;DHT22;21906;50.812;7.132;2023-04-06T11:34:48;15.60;35.00
4107;DHT22;21906;50.812;7.132;2023-04-06T11:37:14;15.70;34.90
4107;DHT22;21906;50.812;7.132;2023-04-06T11:39:40;15.60;34.50
4107;DHT22;21906;50.812;7.132;2023-04-06T11:42:06;15.50;35.30
4107;DHT22;21906;50.812;7.132;2023-04-06T11:44:38;15.30;35.30
4107;DHT22;21906;50.812;7.132;2023-04-06T11:47:06;15.30;35.10
4107;DHT22;21906;50.812;7.132;2023-04-06T11:49:37;15.40;36.00
4107;DHT22;21906;50.812;7.132;2023-04-06T11:52:13;15.40;35.70
4107;DHT22;21906;50.812;7.132;2023-04-06T11:54:39;15.50;35.30
4107;DHT22;21906;50.812;7.132;2023-04-06T11:57:07;15.60;35.40
4107;DHT22;21906;50.812;7.132;2023-04-06T11:59:34;15.60;35.30
4107;DHT22;21906;50.812;7.132;2023-04-06T12:02:03;15.60;35.80
4107;DHT22;21906;50.812;7.132;2023-04-06T12:04:29;15.60;35.60
4107;DHT22;21906;50.812;7.132;2023-04-06T12:06:56;15.60;35.80
4107;DHT22;21906;50.812;7.132;2023-04-06T12:09:21;15.60;35.70
4107;DHT22;21906;50.812;7.132;2023-04-06T12:11:47;15.60;36.20
4107;DHT22;21906;50.812;7.132;2023-04-06T12:14:13;15.70;36.10
4107;DHT22;21906;50.812;7.132;2023-04-06T12:16:39;15.80;35.40
4107;DHT22;21906;50.812;7.132;2023-04-06T12:19:05;15.70;35.00
4107;DHT22;21906;50.812;7.132;2023-04-06T12:21:32;15.70;35.40
4107;DHT22;21906;50.812;7.132;2023-04-06T12:23:58;15.80;35.00
4107;DHT22;21906;50.812;7.132;2023-04-06T12:26:24;15.80;35.20
4107;DHT22;21906;50.812;7.132;2023-04-06T12:28:51;15.80;35.40
4107;DHT22;21906;50.812;7.132;2023-04-06T12:31:21;15.90;35.80
4107;DHT22;21906;50.812;7.132;2023-04-06T12:33:50;15.80;34.60
4107;DHT22;21906;50.812;7.132;2023-04-06T12:36:17;15.80;35.00
4107;DHT22;21906;50.812;7.132;2023-04-06T12:38:50;15.90;35.00
4107;DHT22;21906;50.812;7.132;2023-04-06T12:41:16;15.70;36.10
4107;DHT22;21906;50.812;7.132;2023-04-06T12:43:43;15.60;36.30
4107;DHT22;21906;50.812;7.132;2023-04-06T12:46:09;15.60;36.80
4107;DHT22;21906;50.812;7.132;2023-04-06T12:48:36;15.60;36.20
4107;DHT22;21906;50.812;7.132;2023-04-06T12:51:06;15.60;36.00
4107;DHT22;21906;50.812;7.132;2023-04-06T12:53:33;15.70;35.60
4107;DHT22;21906;50.812;7.132;2023-04-06T12:56:00;15.60;34.90
4107;DHT22;21906;50.812;7.132;2023-04-06T12:58:26;15.60;35.20
4107;DHT22;21906;50.812;7.132;2023-04-06T13:00:57;15.80;34.60
4107;DHT22;21906;50.812;7.132;2023-04-06T13:03:23;15.90;34.70
4107;DHT22;21906;50.812;7.132;2023-04-06T13:05:50;15.90;35.30
4107;DHT22;21906;50.812;7.132;2023-04-06T13:08:18;15.80;35.00
4107;DHT22;21906;50.812;7.132;2023-04-06T13:10:47;15.80;35.10
4107;DHT22;21906;50.812;7.132;2023-04-06T13:13:14;15.70;34.50
4107;DHT22;21906;50.812;7.132;2023-04-06T13:15:40;15.80;34.20
4107;DHT22;21906;50.812;7.132;2023-04-06T13:18:07;15.70;34.60
4107;DHT22;21906;50.812;7.132;2023-04-06T13:20:32;15.60;34.80
4107;DHT22;21906;50.812;7.132;2023-04-06T13:22:58;15.30;36.20
4107;DHT22;21906;50.812;7.132;2023-04-06T13:25:24;15.30;36.20
4107;DHT22;21906;50.812;7.132;2023-04-06T13:27:49;15.30;36.40
4107;DHT22;21906;50.812;7.132;2023-04-06T13:30:16;15.20;36.80
4107;DHT22;21906;50.812;7.132;2023-04-06T13:32:42;15.20;37.60
4107;DHT22;21906;50.812;7.132;2023-04-06T13:35:07;15.20;38.20
4107;DHT22;21906;50.812;7.132;2023-04-06T13:37:34;15.20;36.90
4107;DHT22;21906;50.812;7.132;2023-04-06T13:40:00;15.00;37.90
4107;DHT22;21906;50.812;7.132;2023-04-06T13:42:27;14.90;37.20
4107;DHT22;21906;50.812;7.132;2023-04-06T13:44:53;14.70;37.20
4107;DHT22;21906;50.812;7.132;2023-04-06T13:47:19;14.60;37.20
4107;DHT22;21906;50.812;7.132;2023-04-06T13:49:46;14.50;37.50
4107;DHT22;21906;50.812;7.132;2023-04-06T13:52:12;14.50;38.20
4107;DHT22;21906;50.812;7.132;2023-04-06T13:54:38;14.50;38.30
4107;DHT22;21906;50.812;7.132;2023-04-06T13:57:04;14.40;38.70
4107;DHT22;21906;50.812;7.132;2023-04-06T13:59:37;14.20;39.50
4107;DHT22;21906;50.812;7.132;2023-04-06T14:02:04;14.00;40.60
4107;DHT22;21906;50.812;7.132;2023-04-06T14:04:30;13.90;41.20
4107;DHT22;21906;50.812;7.132;2023-04-06T14:06:57;13.80;41.80
4107;DHT22;21906;50.812;7.132;2023-04-06T14:09:23;13.60;42.20
4107;DHT22;21906;50.812;7.132;2023-04-06T14:11:49;13.60;42.30
4107;DHT22;21906;50.812;7.132;2023-04-06T14:14:15;13.50;42.50
4107;DHT22;21906;50.812;7.132;2023-04-06T14:16:41;13.40;43.20
4107;DHT22;21906;50.812;7.132;2023-04-06T14:19:09;13.40;44.00
4107;DHT22;21906;50.812;7.132;2023-04-06T14:21:37;13.40;43.40
4107;DHT22;21906;50.812;7.132;2023-04-06T14:24:05;13.40;43.80
4107;DHT22;21906;50.812;7.132;2023-04-06T14:26:31;13.40;43.70
4107;DHT22;21906;50.812;7.132;2023-04-06T14:28:58;13.40;44.20
4107;DHT22;21906;50.812;7.132;2023-04-06T14:31:23;13.40;44.60
4107;DHT22;21906;50.812;7.132;2023-04-06T14:33:49;13.40;44.80
4107;DHT22;21906;50.812;7.132;2023-04-06T14:36:15;13.40;45.40
4107;DHT22;21906;50.812;7.132;2023-04-06T14:38:41;13.40;45.40
4107;DHT22;21906;50.812;7.132;2023-04-06T14:41:08;13.30;45.30
4107;DHT22;21906;50.812;7.132;2023-04-06T14:43:39;13.20;46.20
4107;DHT22;21906;50.812;7.132;2023-04-06T14:46:05;13.30;46.20
4107;DHT22;21906;50.812;7.132;2023-04-06T14:48:31;13.30;46.10
4107;DHT22;21906;50.812;7.132;2023-04-06T14:50:57;13.20;46.60
4107;DHT22;21906;50.812;7.132;2023-04-06T14:53:23;13.20;47.10
4107;DHT22;21906;50.812;7.132;2023-04-06T14:55:49;13.10;47.40
4107;DHT22;21906;50.812;7.132;2023-04-06T14:58:17;13.00;48.60
4107;DHT22;21906;50.812;7.132;2023-04-06T15:00:42;13.00;48.60
4107;DHT22;21906;50.812;7.132;2023-04-06T15:03:08;12.90;49.50
4107;DHT22;21906;50.812;7.132;2023-04-06T15:05:34;13.00;49.80
4107;DHT22;21906;50.812;7.132;2023-04-06T15:08:00;13.10;50.70
4107;DHT22;21906;50.812;7.132;2023-04-06T15:10:26;13.00;51.70
4107;DHT22;21906;50.812;7.132;2023-04-06T15:12:51;13.00;52.10
4107;DHT22;21906;50.812;7.132;2023-04-06T15:15:17;12.90;51.30
4107;DHT22;21906;50.812;7.132;2023-04-06T15:17:43;12.90;51.60
4107;DHT22;21906;50.812;7.132;2023-04-06T15:20:09;12.80;52.40
4107;DHT22;21906;50.812;7.132;2023-04-06T15:22:35;12.70;52.30
4107;DHT22;21906;50.812;7.132;2023-04-06T15:25:01;12.60;52.80
4107;DHT22;21906;50.812;7.132;2023-04-06T15:27:26;12.60;52.30
4107;DHT22;21906;50.812;7.132;2023-04-06T15:29:52;12.70;52.60
4107;DHT22;21906;50.812;7.132;2023-04-06T15:32:17;12.70;52.50
4107;DHT22;21906;50.812;7.132;2023-04-06T15:34:43;12.60;52.40
4107;DHT22;21906;50.812;7.132;2023-04-06T15:37:08;12.60;52.80
4107;DHT22;21906;50.812;7.132;2023-04-06T15:39:34;12.60;53.50
4107;DHT22;21906;50.812;7.132;2023-04-06T15:42:02;12.50;54.40
4107;DHT22;21906;50.812;7.132;2023-04-06T15:44:28;12.50;54.40
4107;DHT22;21906;50.812;7.132;2023-04-06T15:46:54;12.50;55.20
4107;DHT22;21906;50.812;7.132;2023-04-06T15:49:20;12.60;55.40
4107;DHT22;21906;50.812;7.132;2023-04-06T15:51:50;12.50;55.90
4107;DHT22;21906;50.812;7.132;2023-04-06T15:54:16;12.50;56.00
4107;DHT22;21906;50.812;7.132;2023-04-06T15:56:42;12.40;55.90
4107;DHT22;21906;50.812;7.132;2023-04-06T15:59:08;12.50;56.10
4107;DHT22;21906;50.812;7.132;2023-04-06T16:01:34;12.40;56.30
4107;DHT22;21906;50.812;7.132;2023-04-06T16:04:00;12.40;57.20